sensor_id;sensor_type;location;lat;lon;timestamp;pressure;altitude;pressure_sealevel;temperature;humidity
72086;BME280;64750;52.134;5.424;2023-04-03T00:00:18;103285.72;;;5.39;62.73
72086;BME280;64750;52.134;5.424;2023-04-03T00:02:44;103280.50;;;5.36;62.74
72086;BME280;64750;52.134;5.424;2023-04-03T00:05:11;103286.56;;;5.37;62.61
72086;BME280;64750;52.134;5.424;2023-04-03T00:07:37;103295.28;;;5.37;62.84
72086;BME280;64750;52.134;5.424;2023-04-03T00:10:04;103288.31;;;5.38;62.48
72086;BME280;64750;52.134;5.424;2023-04-03T00:12:30;103298.75;;;5.29;62.56
72086;BME280;64750;52.134;5.424;2023-04-03T00:14:57;103296.97;;;5.21;62.67
72086;BME280;64750;52.134;5.424;2023-04-03T00:17:23;103301.34;;;5.22;62.86
72086;BME280;64750;52.134;5.424;2023-04-03T00:19:49;103299.59;;;5.20;62.77
72086;BME280;64750;52.134;5.424;2023-04-03T00:22:16;103290.88;;;5.18;63.08
72086;BME280;64750;52.134;5.424;2023-04-03T00:24:42;103300.47;;;5.14;63.07
72086;BME280;64750;52.134;5.424;2023-04-03T00:27:09;103303.91;;;5.07;63.03
72086;BME280;64750;52.134;5.424;2023-04-03T00:29:35;103299.56;;;5.04;63.53
72086;BME280;64750;52.134;5.424;2023-04-03T00:32:01;103303.03;;;5.03;63.13
72086;BME280;64750;52.134;5.424;2023-04-03T00:34:28;103303.03;;;4.99;63.40
72086;BME280;64750;52.134;5.424;2023-04-03T00:36:54;103304.78;;;5.07;63.60
72086;BME280;64750;52.134;5.424;2023-04-03T00:39:21;103303.03;;;5.11;63.62
72086;BME280;64750;52.134;5.424;2023-04-03T00:41:47;103310.00;;;5.01;63.51
72086;BME280;64750;52.134;5.424;2023-04-03T00:46:59;103312.56;;;5.00;63.86
72086;BME280;64750;52.134;5.424;2023-04-03T00:49:27;103308.25;;;5.05;63.78
72086;BME280;64750;52.134;5.424;2023-04-03T00:51:54;103315.19;;;5.01;64.13
72086;BME280;64750;52.134;5.424;2023-04-03T00:54:22;103316.06;;;5.02;63.89
72086;BME280;64750;52.134;5.424;2023-04-03T00:56:51;103318.66;;;5.03;64.42
72086;BME280;64750;52.134;5.424;2023-04-03T00:59:24;103316.06;;;5.00;64.01
72086;BME280;64750;52.134;5.424;2023-04-03T01:01:53;103318.63;;;4.89;64.17
72086;BME280;64750;52.134;5.424;2023-04-03T01:04:35;103316.88;;;4.85;64.56
72086;BME280;64750;52.134;5.424;2023-04-03T01:09:47;103322.09;;;4.84;64.82
72086;BME280;64750;52.134;5.424;2023-04-03T01:12:15;103317.69;;;4.75;64.84
72086;BME280;64750;52.134;5.424;2023-04-03T01:14:44;103326.41;;;4.80;64.90
72086;BME280;64750;52.134;5.424;2023-04-03T01:25:43;103325.47;;;4.66;65.48
72086;BME280;64750;52.134;5.424;2023-04-03T01:28:22;103321.13;;;4.68;65.79
72086;BME280;64750;52.134;5.424;2023-04-03T01:33:31;103319.38;;;4.60;66.38
72086;BME280;64750;52.134;5.424;2023-04-03T01:35:57;103318.53;;;4.62;66.01
72086;BME280;64750;52.134;5.424;2023-04-03T01:38:24;103321.13;;;4.66;66.13
72086;BME280;64750;52.134;5.424;2023-04-03T01:40:51;103323.72;;;4.63;66.38
72086;BME280;64750;52.134;5.424;2023-04-03T01:43:17;103320.28;;;4.64;66.38
72086;BME280;64750;52.134;5.424;2023-04-03T01:45:44;103315.03;;;4.56;66.09
72086;BME280;64750;52.134;5.424;2023-04-03T01:48:10;103321.13;;;4.62;66.17
72086;BME280;64750;52.134;5.424;2023-04-03T01:50:37;103317.66;;;4.70;66.19
72086;BME280;64750;52.134;5.424;2023-04-03T01:53:04;103317.69;;;4.72;65.93
72086;BME280;64750;52.134;5.424;2023-04-03T01:55:30;103317.63;;;4.59;66.28
72086;BME280;64750;52.134;5.424;2023-04-03T01:57:56;103326.31;;;4.55;66.44
72086;BME280;64750;52.134;5.424;2023-04-03T02:00:23;103323.63;;;4.40;66.51
72086;BME280;64750;52.134;5.424;2023-04-03T02:02:49;103322.75;;;4.41;67.12
72086;BME280;64750;52.134;5.424;2023-04-03T02:05:16;103327.97;;;4.44;66.95
72086;BME280;64750;52.134;5.424;2023-04-03T02:07:42;103326.19;;;4.34;66.83
72086;BME280;64750;52.134;5.424;2023-04-03T02:10:09;103322.72;;;4.38;67.41
72086;BME280;64750;52.134;5.424;2023-04-03T02:12:36;103327.06;;;4.39;67.69
72086;BME280;64750;52.134;5.424;2023-04-03T02:15:02;103337.44;;;4.33;67.58
72086;BME280;64750;52.134;5.424;2023-04-03T02:17:29;103335.69;;;4.30;67.90
72086;BME280;64750;52.134;5.424;2023-04-03T02:19:56;103338.34;;;4.38;67.71
72086;BME280;64750;52.134;5.424;2023-04-03T02:22:22;103347.06;;;4.43;67.45
72086;BME280;64750;52.134;5.424;2023-04-03T02:24:48;103337.44;;;4.31;67.48
72086;BME280;64750;52.134;5.424;2023-04-03T02:27:15;103336.56;;;4.31;68.03
72086;BME280;64750;52.134;5.424;2023-04-03T02:29:42;103345.19;;;4.25;67.75
72086;BME280;64750;52.134;5.424;2023-04-03T02:32:08;103348.66;;;4.22;68.43
72086;BME280;64750;52.134;5.424;2023-04-03T02:34:34;103340.00;;;4.23;68.28
72086;BME280;64750;52.134;5.424;2023-04-03T02:37:01;103335.78;;;4.44;68.56
72086;BME280;64750;52.134;5.424;2023-04-03T02:39:28;103333.13;;;4.38;68.38
72086;BME280;64750;52.134;5.424;2023-04-03T02:41:54;103345.16;;;4.20;68.69
72086;BME280;64750;52.134;5.424;2023-04-03T02:44:20;103342.56;;;4.19;68.67
72086;BME280;64750;52.134;5.424;2023-04-03T02:46:47;103350.31;;;4.08;68.80
72086;BME280;64750;52.134;5.424;2023-04-03T02:49:13;103347.75;;;4.14;69.15
72086;BME280;64750;52.134;5.424;2023-04-03T02:51:40;103352.16;;;4.27;69.18
72086;BME280;64750;52.134;5.424;2023-04-03T02:54:06;103352.22;;;4.35;68.68
72086;BME280;64750;52.134;5.424;2023-04-03T02:56:33;103363.50;;;4.36;68.92
72086;BME280;64750;52.134;5.424;2023-04-03T02:58:59;103357.47;;;4.40;68.96
72086;BME280;64750;52.134;5.424;2023-04-03T03:01:26;103364.44;;;4.44;68.81
72086;BME280;64750;52.134;5.424;2023-04-03T03:03:54;103362.72;;;4.49;68.96
72086;BME280;64750;52.134;5.424;2023-04-03T03:06:21;103370.53;;;4.48;68.70
72086;BME280;64750;52.134;5.424;2023-04-03T03:08:47;103364.44;;;4.44;69.01
72086;BME280;64750;52.134;5.424;2023-04-03T03:11:13;103372.25;;;4.44;68.94
72086;BME280;64750;52.134;5.424;2023-04-03T03:13:41;103375.69;;;4.41;69.16
72086;BME280;64750;52.134;5.424;2023-04-03T03:16:07;103378.31;;;4.41;68.99
72086;BME280;64750;52.134;5.424;2023-04-03T03:18:34;103379.16;;;4.42;68.81
72086;BME280;64750;52.134;5.424;2023-04-03T03:21:02;103380.91;;;4.43;69.32
72086;BME280;64750;52.134;5.424;2023-04-03T03:23:30;103381.75;;;4.39;69.27
72086;BME280;64750;52.134;5.424;2023-04-03T03:26:02;103380.00;;;4.35;69.33
72086;BME280;64750;52.134;5.424;2023-04-03T03:28:29;103379.09;;;4.36;69.35
72086;BME280;64750;52.134;5.424;2023-04-03T03:30:57;103376.53;;;4.37;68.97
72086;BME280;64750;52.134;5.424;2023-04-03T03:33:24;103383.34;;;4.18;69.04
72086;BME280;64750;52.134;5.424;2023-04-03T03:35:52;103381.59;;;4.19;69.49
72086;BME280;64750;52.134;5.424;2023-04-03T03:38:19;103389.41;;;4.19;69.60
72086;BME280;64750;52.134;5.424;2023-04-03T03:40:49;103393.72;;;4.15;69.86
72086;BME280;64750;52.134;5.424;2023-04-03T03:43:17;103384.97;;;4.04;69.66
72086;BME280;64750;52.134;5.424;2023-04-03T03:45:44;103391.94;;;4.08;70.03
72086;BME280;64750;52.134;5.424;2023-04-03T03:48:11;103387.56;;;4.04;70.20
72086;BME280;64750;52.134;5.424;2023-04-03T03:50:38;103378.94;;;4.06;70.16
72086;BME280;64750;52.134;5.424;2023-04-03T03:53:04;103382.31;;;3.96;70.39
72086;BME280;64750;52.134;5.424;2023-04-03T03:55:31;103389.16;;;3.89;70.26
72086;BME280;64750;52.134;5.424;2023-04-03T03:57:57;103384.00;;;3.92;70.43
72086;BME280;64750;52.134;5.424;2023-04-03T04:00:24;103389.22;;;3.96;70.71
72086;BME280;64750;52.134;5.424;2023-04-03T04:02:51;103390.91;;;3.92;70.51
72086;BME280;64750;52.134;5.424;2023-04-03T04:05:17;103390.06;;;3.91;70.54
72086;BME280;64750;52.134;5.424;2023-04-03T04:07:44;103391.78;;;3.89;70.87
72086;BME280;64750;52.134;5.424;2023-04-03T04:10:10;103388.25;;;3.84;70.84
72086;BME280;64750;52.134;5.424;2023-04-03T04:12:37;103393.38;;;3.75;71.26
72086;BME280;64750;52.134;5.424;2023-04-03T04:15:03;103395.06;;;3.73;71.01
72086;BME280;64750;52.134;5.424;2023-04-03T04:17:30;103407.16;;;3.65;71.58
72086;BME280;64750;52.134;5.424;2023-04-03T04:19:56;103412.34;;;3.61;71.92
72086;BME280;64750;52.134;5.424;2023-04-03T04:22:23;103413.31;;;3.74;71.78
72086;BME280;64750;52.134;5.424;2023-04-03T04:24:49;103402.91;;;3.74;71.54
72086;BME280;64750;52.134;5.424;2023-04-03T04:27:15;103408.13;;;3.74;71.31
72086;BME280;64750;52.134;5.424;2023-04-03T04:29:42;103406.31;;;3.70;71.15
72086;BME280;64750;52.134;5.424;2023-04-03T04:32:09;103414.19;;;3.75;71.45
72086;BME280;64750;52.134;5.424;2023-04-03T04:34:35;103412.44;;;3.75;71.13
72086;BME280;64750;52.134;5.424;2023-04-03T04:37:01;103418.44;;;3.67;71.66
72086;BME280;64750;52.134;5.424;2023-04-03T04:39:28;103408.13;;;3.74;71.58
72086;BME280;64750;52.134;5.424;2023-04-03T04:41:54;103413.19;;;3.64;71.55
72086;BME280;64750;52.134;5.424;2023-04-03T04:44:21;103413.19;;;3.64;71.54
72086;BME280;64750;52.134;5.424;2023-04-03T04:46:47;103426.34;;;3.76;71.99
72086;BME280;64750;52.134;5.424;2023-04-03T04:49:14;103426.38;;;3.81;71.81
72086;BME280;64750;52.134;5.424;2023-04-03T04:51:40;103428.09;;;3.77;71.49
72086;BME280;64750;52.134;5.424;2023-04-03T04:54:17;103423.69;;;3.71;71.21
72086;BME280;64750;52.134;5.424;2023-04-03T04:56:43;103422.81;;;3.71;72.11
72086;BME280;64750;52.134;5.424;2023-04-03T04:59:10;103421.00;;;3.65;71.50
72086;BME280;64750;52.134;5.424;2023-04-03T05:01:36;103421.91;;;3.64;71.67
72086;BME280;64750;52.134;5.424;2023-04-03T05:04:03;103421.78;;;3.55;72.45
72086;BME280;64750;52.134;5.424;2023-04-03T05:06:29;103426.06;;;3.51;72.12
72086;BME280;64750;52.134;5.424;2023-04-03T05:08:58;103417.31;;;3.41;72.24
72086;BME280;64750;52.134;5.424;2023-04-03T05:11:25;103425.84;;;3.30;72.71
72086;BME280;64750;52.134;5.424;2023-04-03T05:13:52;103424.94;;;3.27;72.75
72086;BME280;64750;52.134;5.424;2023-04-03T05:16:18;103425.78;;;3.28;72.39
72086;BME280;64750;52.134;5.424;2023-04-03T05:18:45;103421.50;;;3.28;72.98
72086;BME280;64750;52.134;5.424;2023-04-03T05:21:11;103432.72;;;3.27;73.06
72086;BME280;64750;52.134;5.424;2023-04-03T05:23:38;103436.22;;;3.30;72.95
72086;BME280;64750;52.134;5.424;2023-04-03T05:26:04;103430.97;;;3.26;72.54
72086;BME280;64750;52.134;5.424;2023-04-03T05:28:31;103430.22;;;3.34;72.88
72086;BME280;64750;52.134;5.424;2023-04-03T05:30:58;103434.44;;;3.25;72.46
72086;BME280;64750;52.134;5.424;2023-04-03T05:33:25;103443.03;;;3.20;72.94
72086;BME280;64750;52.134;5.424;2023-04-03T05:35:53;103444.78;;;3.22;72.87
72086;BME280;64750;52.134;5.424;2023-04-03T05:38:20;103445.56;;;3.15;72.58
72086;BME280;64750;52.134;5.424;2023-04-03T05:40:46;103442.97;;;3.15;72.91
72086;BME280;64750;52.134;5.424;2023-04-03T05:43:13;103442.09;;;3.13;72.98
72086;BME280;64750;52.134;5.424;2023-04-03T05:45:39;103453.34;;;3.12;73.40
72086;BME280;64750;52.134;5.424;2023-04-03T05:48:06;103456.84;;;3.14;72.57
72086;BME280;64750;52.134;5.424;2023-04-03T05:50:32;103456.84;;;3.14;72.84
72086;BME280;64750;52.134;5.424;2023-04-03T05:52:59;103458.44;;;3.06;73.13
72086;BME280;64750;52.134;5.424;2023-04-03T05:55:27;103464.50;;;3.06;73.29
72086;BME280;64750;52.134;5.424;2023-04-03T05:57:54;103467.16;;;3.09;73.07
72086;BME280;64750;52.134;5.424;2023-04-03T06:00:20;103464.59;;;3.12;73.16
72086;BME280;64750;52.134;5.424;2023-04-03T06:02:47;103468.84;;;3.07;73.27
72086;BME280;64750;52.134;5.424;2023-04-03T06:05:13;103473.22;;;3.10;73.29
72086;BME280;64750;52.134;5.424;2023-04-03T06:07:41;103476.72;;;3.12;73.55
72086;BME280;64750;52.134;5.424;2023-04-03T06:10:07;103478.47;;;3.15;73.38
72086;BME280;64750;52.134;5.424;2023-04-03T06:12:35;103472.44;;;3.16;73.32
72086;BME280;64750;52.134;5.424;2023-04-03T06:15:02;103470.81;;;3.24;73.35
72086;BME280;64750;52.134;5.424;2023-04-03T06:17:29;103479.41;;;3.18;73.06
72086;BME280;64750;52.134;5.424;2023-04-03T06:19:56;103477.69;;;3.20;72.61
72086;BME280;64750;52.134;5.424;2023-04-03T06:22:24;103473.22;;;3.10;73.09
72086;BME280;64750;52.134;5.424;2023-04-03T06:24:51;103476.75;;;3.15;73.57
72086;BME280;64750;52.134;5.424;2023-04-03T06:27:18;103482.97;;;3.26;73.65
72086;BME280;64750;52.134;5.424;2023-04-03T06:29:44;103484.63;;;3.20;73.25
72086;BME280;64750;52.134;5.424;2023-04-03T06:32:11;103479.53;;;3.27;73.09
72086;BME280;64750;52.134;5.424;2023-04-03T06:34:37;103489.06;;;3.28;72.71
72086;BME280;64750;52.134;5.424;2023-04-03T06:37:04;103489.06;;;3.28;73.53
72086;BME280;64750;52.134;5.424;2023-04-03T06:39:30;103486.56;;;3.36;72.87
72086;BME280;64750;52.134;5.424;2023-04-03T06:41:57;103489.19;;;3.38;73.44
72086;BME280;64750;52.134;5.424;2023-04-03T06:44:23;103495.34;;;3.46;73.06
72086;BME280;64750;52.134;5.424;2023-04-03T06:46:50;103500.50;;;3.43;73.07
72086;BME280;64750;52.134;5.424;2023-04-03T06:49:17;103504.91;;;3.49;73.02
72086;BME280;64750;52.134;5.424;2023-04-03T06:51:44;103496.22;;;3.47;72.35
72086;BME280;64750;52.134;5.424;2023-04-03T06:54:10;103499.75;;;3.50;72.71
72086;BME280;64750;52.134;5.424;2023-04-03T06:56:37;103502.53;;;3.66;72.43
72086;BME280;64750;52.134;5.424;2023-04-03T06:59:03;103511.19;;;3.68;72.19
72086;BME280;64750;52.134;5.424;2023-04-03T07:01:30;103508.75;;;3.78;72.26
72086;BME280;64750;52.134;5.424;2023-04-03T07:03:57;103507.94;;;3.84;71.51
72086;BME280;64750;52.134;5.424;2023-04-03T07:06:23;103514.03;;;3.86;71.93
72086;BME280;64750;52.134;5.424;2023-04-03T07:08:53;103516.66;;;3.88;71.83
72086;BME280;64750;52.134;5.424;2023-04-03T07:11:20;103518.25;;;3.78;71.28
72086;BME280;64750;52.134;5.424;2023-04-03T07:13:46;103524.44;;;3.88;72.00
72086;BME280;64750;52.134;5.424;2023-04-03T07:16:13;103514.19;;;4.00;71.81
72086;BME280;64750;52.134;5.424;2023-04-03T07:18:40;103526.31;;;4.00;71.17
72086;BME280;64750;52.134;5.424;2023-04-03T07:21:06;103519.31;;;3.92;70.93
72086;BME280;64750;52.134;5.424;2023-04-03T07:23:33;103530.66;;;3.99;70.51
72086;BME280;64750;52.134;5.424;2023-04-03T07:26:00;103524.50;;;3.92;70.45
72086;BME280;64750;52.134;5.424;2023-04-03T07:28:27;103531.44;;;3.93;70.81
72086;BME280;64750;52.134;5.424;2023-04-03T07:31:00;103529.78;;;3.99;70.75
72086;BME280;64750;52.134;5.424;2023-04-03T07:33:27;103535.97;;;4.10;70.72
72086;BME280;64750;52.134;5.424;2023-04-03T07:35:54;103537.00;;;4.24;70.21
72086;BME280;64750;52.134;5.424;2023-04-03T07:38:21;103535.38;;;4.37;70.11
72086;BME280;64750;52.134;5.424;2023-04-03T07:40:49;103538.91;;;4.47;69.92
72086;BME280;64750;52.134;5.424;2023-04-03T07:43:17;103538.13;;;4.54;69.40
72086;BME280;64750;52.134;5.424;2023-04-03T07:45:44;103534.69;;;4.60;69.55
72086;BME280;64750;52.134;5.424;2023-04-03T07:48:12;103540.00;;;4.69;68.12
72086;BME280;64750;52.134;5.424;2023-04-03T07:50:41;103539.94;;;4.65;68.02
72086;BME280;64750;52.134;5.424;2023-04-03T07:53:08;103527.75;;;4.59;67.78
72086;BME280;64750;52.134;5.424;2023-04-03T07:55:35;103536.56;;;4.76;68.41
72086;BME280;64750;52.134;5.424;2023-04-03T07:58:06;103541.00;;;4.88;67.28
72086;BME280;64750;52.134;5.424;2023-04-03T08:00:33;103540.13;;;4.86;66.65
72086;BME280;64750;52.134;5.424;2023-04-03T08:03:00;103535.81;;;4.90;66.22
72086;BME280;64750;52.134;5.424;2023-04-03T08:05:26;103540.13;;;4.89;66.11
72086;BME280;64750;52.134;5.424;2023-04-03T08:07:53;103537.66;;;5.06;66.60
72086;BME280;64750;52.134;5.424;2023-04-03T08:10:19;103536.84;;;5.18;66.40
72086;BME280;64750;52.134;5.424;2023-04-03T08:12:47;103541.25;;;5.30;65.13
72086;BME280;64750;52.134;5.424;2023-04-03T08:15:14;103533.47;;;5.36;65.25
72086;BME280;64750;52.134;5.424;2023-04-03T08:17:40;103543.00;;;5.34;63.91
72086;BME280;64750;52.134;5.424;2023-04-03T08:20:09;103538.66;;;5.29;63.38
72086;BME280;64750;52.134;5.424;2023-04-03T08:22:36;103550.03;;;5.41;64.20
72086;BME280;64750;52.134;5.424;2023-04-03T08:25:02;103545.72;;;5.51;63.95
72086;BME280;64750;52.134;5.424;2023-04-03T08:27:29;103549.22;;;5.56;61.98
72086;BME280;64750;52.134;5.424;2023-04-03T08:29:56;103550.91;;;5.48;61.67
72086;BME280;64750;52.134;5.424;2023-04-03T08:32:23;103555.28;;;5.49;61.90
72086;BME280;64750;52.134;5.424;2023-04-03T08:34:50;103550.94;;;5.57;61.43
72086;BME280;64750;52.134;5.424;2023-04-03T08:37:17;103549.28;;;5.66;61.81
72086;BME280;64750;52.134;5.424;2023-04-03T08:39:43;103559.66;;;5.63;60.99
72086;BME280;64750;52.134;5.424;2023-04-03T08:42:39;103564.84;;;5.50;60.63
72086;BME280;64750;52.134;5.424;2023-04-03T08:45:10;103564.00;;;5.51;60.21
72086;BME280;64750;52.134;5.424;2023-04-03T08:47:47;103557.91;;;5.58;59.80
72086;BME280;64750;52.134;5.424;2023-04-03T08:50:26;103559.69;;;5.66;56.22
72086;BME280;64750;52.134;5.424;2023-04-03T08:52:57;103559.69;;;5.70;57.77
72086;BME280;64750;52.134;5.424;2023-04-03T08:55:31;103557.16;;;5.80;56.54
72086;BME280;64750;52.134;5.424;2023-04-03T08:58:09;103562.38;;;5.84;56.33
72086;BME280;64750;52.134;5.424;2023-04-03T09:00:46;103565.00;;;5.90;56.07
72086;BME280;64750;52.134;5.424;2023-04-03T09:03:14;103554.63;;;5.98;54.12
72086;BME280;64750;52.134;5.424;2023-04-03T09:06:03;103541.59;;;6.04;54.22
72086;BME280;64750;52.134;5.424;2023-04-03T09:11:34;103545.97;;;6.19;52.15
72086;BME280;64750;52.134;5.424;2023-04-03T09:16:56;103552.97;;;6.36;52.97
72086;BME280;64750;52.134;5.424;2023-04-03T09:22:11;103552.09;;;6.49;49.23
72086;BME280;64750;52.134;5.424;2023-04-03T09:24:40;103548.63;;;6.49;50.32
72086;BME280;64750;52.134;5.424;2023-04-03T09:27:10;103554.72;;;6.49;49.36
72086;BME280;64750;52.134;5.424;2023-04-03T09:29:40;103549.47;;;6.52;46.92
72086;BME280;64750;52.134;5.424;2023-04-03T09:32:34;103550.38;;;6.54;45.56
72086;BME280;64750;52.134;5.424;2023-04-03T09:35:31;103542.53;;;6.61;46.03
72086;BME280;64750;52.134;5.424;2023-04-03T09:40:46;103534.69;;;6.70;46.92
72086;BME280;64750;52.134;5.424;2023-04-03T09:43:29;103532.97;;;6.78;47.50
72086;BME280;64750;52.134;5.424;2023-04-03T09:48:56;103525.97;;;6.83;45.88
72086;BME280;64750;52.134;5.424;2023-04-03T09:51:35;103526.84;;;6.82;42.87
72086;BME280;64750;52.134;5.424;2023-04-03T09:54:37;103524.22;;;6.82;45.08
72086;BME280;64750;52.134;5.424;2023-04-03T09:57:11;103514.63;;;6.84;46.24
72086;BME280;64750;52.134;5.424;2023-04-03T09:59:43;103515.50;;;6.94;47.40
72086;BME280;64750;52.134;5.424;2023-04-03T10:02:37;103509.38;;;7.00;45.39
72086;BME280;64750;52.134;5.424;2023-04-03T10:05:33;103505.88;;;7.02;46.21
72086;BME280;64750;52.134;5.424;2023-04-03T10:10:41;103486.69;;;7.14;43.71
72086;BME280;64750;52.134;5.424;2023-04-03T10:15:51;103493.63;;;7.25;43.44
72086;BME280;64750;52.134;5.424;2023-04-03T10:18:30;103497.09;;;7.30;43.30
72086;BME280;64750;52.134;5.424;2023-04-03T10:21:10;103493.59;;;7.34;44.81
72086;BME280;64750;52.134;5.424;2023-04-03T10:24:13;103483.09;;;7.40;42.65
72086;BME280;64750;52.134;5.424;2023-04-03T10:27:37;103483.09;;;7.40;44.95
72086;BME280;64750;52.134;5.424;2023-04-03T10:29:54;103485.69;;;7.42;44.34
72086;BME280;64750;52.134;5.424;2023-04-03T10:32:36;103470.84;;;7.50;42.31
72086;BME280;64750;52.134;5.424;2023-04-03T10:35:16;103469.03;;;7.60;43.49
72086;BME280;64750;52.134;5.424;2023-04-03T10:38:13;103459.44;;;7.63;44.23
72086;BME280;64750;52.134;5.424;2023-04-03T10:43:41;103448.06;;;7.70;42.03
72086;BME280;64750;52.134;5.424;2023-04-03T10:51:47;103451.47;;;7.80;43.22
72086;BME280;64750;52.134;5.424;2023-04-03T10:54:24;103449.72;;;7.81;41.46
72086;BME280;64750;52.134;5.424;2023-04-03T10:57:03;103455.81;;;7.81;41.06
72086;BME280;64750;52.134;5.424;2023-04-03T10:59:43;103442.72;;;7.86;42.89
72086;BME280;64750;52.134;5.424;2023-04-03T11:02:23;103442.66;;;7.94;42.03
72086;BME280;64750;52.134;5.424;2023-04-03T11:04:56;103439.16;;;7.95;41.26
72086;BME280;64750;52.134;5.424;2023-04-03T11:07:33;103429.53;;;7.97;42.45
72086;BME280;64750;52.134;5.424;2023-04-03T11:10:11;103429.44;;;8.09;42.17
72086;BME280;64750;52.134;5.424;2023-04-03T11:12:47;103430.25;;;8.17;41.92
72086;BME280;64750;52.134;5.424;2023-04-03T11:15:17;103436.34;;;8.19;42.00
72086;BME280;64750;52.134;5.424;2023-04-03T11:17:48;103435.47;;;8.20;44.45
72086;BME280;64750;52.134;5.424;2023-04-03T11:20:23;103431.09;;;8.21;43.76
72086;BME280;64750;52.134;5.424;2023-04-03T11:23:00;103429.31;;;8.21;43.88
72086;BME280;64750;52.134;5.424;2023-04-03T11:25:29;103419.66;;;8.30;43.33
72086;BME280;64750;52.134;5.424;2023-04-03T11:27:59;103426.63;;;8.29;44.00
72086;BME280;64750;52.134;5.424;2023-04-03T11:30:37;103429.25;;;8.29;43.53
72086;BME280;64750;52.134;5.424;2023-04-03T11:33:12;103429.28;;;8.28;43.49
72086;BME280;64750;52.134;5.424;2023-04-03T11:35:44;103432.75;;;8.31;44.91
72086;BME280;64750;52.134;5.424;2023-04-03T11:38:25;103433.50;;;8.46;44.37
72086;BME280;64750;52.134;5.424;2023-04-03T11:40:54;103430.81;;;8.55;42.87
72086;BME280;64750;52.134;5.424;2023-04-03T11:43:29;103422.97;;;8.55;42.77
72086;BME280;64750;52.134;5.424;2023-04-03T11:45:59;103407.16;;;8.60;42.23
72086;BME280;64750;52.134;5.424;2023-04-03T11:50:55;103411.44;;;8.68;42.68
72086;BME280;64750;52.134;5.424;2023-04-03T11:53:30;103417.56;;;8.70;41.68
72086;BME280;64750;52.134;5.424;2023-04-03T11:58:33;103414.03;;;8.73;40.49
72086;BME280;64750;52.134;5.424;2023-04-03T12:01:10;103409.63;;;8.75;41.78
72086;BME280;64750;52.134;5.424;2023-04-03T12:13:36;103393.81;;;8.84;43.00
72086;BME280;64750;52.134;5.424;2023-04-03T12:16:04;103396.44;;;8.84;40.86
72086;BME280;64750;52.134;5.424;2023-04-03T12:18:44;103377.16;;;8.85;40.96
72086;BME280;64750;52.134;5.424;2023-04-03T12:22:05;103382.34;;;8.92;40.04
72086;BME280;64750;52.134;5.424;2023-04-03T12:26:46;103366.47;;;9.01;39.39
72086;BME280;64750;52.134;5.424;2023-04-03T12:35:30;103362.97;;;9.02;40.82
72086;BME280;64750;52.134;5.424;2023-04-03T12:43:47;103348.03;;;9.07;39.50
72086;BME280;64750;52.134;5.424;2023-04-03T12:46:21;103352.41;;;9.08;41.75
72086;BME280;64750;52.134;5.424;2023-04-03T12:48:54;103342.72;;;9.13;41.25
72086;BME280;64750;52.134;5.424;2023-04-03T12:51:44;103330.44;;;9.15;40.47
72086;BME280;64750;52.134;5.424;2023-04-03T12:54:17;103331.28;;;9.17;40.15
72086;BME280;64750;52.134;5.424;2023-04-03T12:56:45;103338.31;;;9.15;41.04
72086;BME280;64750;52.134;5.424;2023-04-03T12:59:21;103325.16;;;9.17;40.13
72086;BME280;64750;52.134;5.424;2023-04-03T13:01:59;103320.75;;;9.21;41.09
72086;BME280;64750;52.134;5.424;2023-04-03T13:04:31;103325.94;;;9.24;40.21
72086;BME280;64750;52.134;5.424;2023-04-03T13:06:58;103306.69;;;9.25;40.74
72086;BME280;64750;52.134;5.424;2023-04-03T13:12:00;103312.72;;;9.31;39.94
72086;BME280;64750;52.134;5.424;2023-04-03T13:14:28;103310.13;;;9.28;40.50
72086;BME280;64750;52.134;5.424;2023-04-03T13:17:21;103310.09;;;9.30;39.63
72086;BME280;64750;52.134;5.424;2023-04-03T13:19:46;103305.75;;;9.29;40.15
72086;BME280;64750;52.134;5.424;2023-04-03T13:22:38;103306.59;;;9.31;41.64
72086;BME280;64750;52.134;5.424;2023-04-03T13:25:13;103300.38;;;9.36;39.01
72086;BME280;64750;52.134;5.424;2023-04-03T13:27:41;103302.97;;;9.40;40.60
72086;BME280;64750;52.134;5.424;2023-04-03T13:30:23;103297.72;;;9.40;39.12
72086;BME280;64750;52.134;5.424;2023-04-03T13:32:50;103296.88;;;9.38;39.89
72086;BME280;64750;52.134;5.424;2023-04-03T13:35:29;103307.41;;;9.36;39.72
72086;BME280;64750;52.134;5.424;2023-04-03T13:37:58;103291.69;;;9.34;40.03
72086;BME280;64750;52.134;5.424;2023-04-03T13:40:25;103303.91;;;9.34;39.62
72086;BME280;64750;52.134;5.424;2023-04-03T13:43:26;103300.31;;;9.41;40.08
72086;BME280;64750;52.134;5.424;2023-04-03T13:46:26;103302.03;;;9.44;41.05
72086;BME280;64750;52.134;5.424;2023-04-03T13:48:53;103296.75;;;9.45;39.79
72086;BME280;64750;52.134;5.424;2023-04-03T13:51:28;103309.00;;;9.46;40.64
72086;BME280;64750;52.134;5.424;2023-04-03T13:53:58;103304.56;;;9.50;42.08
72086;BME280;64750;52.134;5.424;2023-04-03T13:56:36;103306.38;;;9.46;38.78
72086;BME280;64750;52.134;5.424;2023-04-03T14:01:46;103302.13;;;9.38;38.70
72086;BME280;64750;52.134;5.424;2023-04-03T14:04:27;103294.19;;;9.42;40.55
72086;BME280;64750;52.134;5.424;2023-04-03T14:06:55;103292.34;;;9.46;40.21
72086;BME280;64750;52.134;5.424;2023-04-03T14:09:23;103281.88;;;9.44;39.63
72086;BME280;64750;52.134;5.424;2023-04-03T14:11:52;103281.84;;;9.47;40.56
72086;BME280;64750;52.134;5.424;2023-04-03T14:14:23;103281.00;;;9.45;39.42
72086;BME280;64750;52.134;5.424;2023-04-03T14:16:56;103277.50;;;9.46;39.62
72086;BME280;64750;52.134;5.424;2023-04-03T14:19:26;103271.34;;;9.47;39.85
72086;BME280;64750;52.134;5.424;2023-04-03T14:21:54;103264.25;;;9.52;41.36
72086;BME280;64750;52.134;5.424;2023-04-03T14:24:21;103262.47;;;9.55;41.49
72086;BME280;64750;52.134;5.424;2023-04-03T14:26:50;103256.31;;;9.56;40.47
72086;BME280;64750;52.134;5.424;2023-04-03T14:29:17;103260.84;;;9.47;40.53
72086;BME280;64750;52.134;5.424;2023-04-03T14:31:45;103259.97;;;9.47;42.17
72086;BME280;64750;52.134;5.424;2023-04-03T14:34:13;103249.41;;;9.51;40.56